createdAt,value
2023-04-10T00:02:09.551Z,55.55
2023-04-10T00:04:36.646Z,56.77
2023-04-10T00:07:03.384Z,58.02
2023-04-10T00:09:30.859Z,57.69
2023-04-10T00:11:57.780Z,57.19
2023-04-10T00:14:24.580Z,58.38
2023-04-10T00:16:52.957Z,57.64
2023-04-10T00:19:19.735Z,55.36
2023-04-10T00:21:46.838Z,55.17
2023-04-10T00:24:13.590Z,55.08
2023-04-10T00:26:40.722Z,53.92
2023-04-10T00:29:08.303Z,53.85
2023-04-10T00:31:35.118Z,53.80
2023-04-10T00:34:01.814Z,53.50
2023-04-10T00:36:28.619Z,53.15
2023-04-10T00:38:55.392Z,51.60
2023-04-10T00:41:23.916Z,50.20
2023-04-10T00:43:51.102Z,49.92
2023-04-10T00:46:17.943Z,50.42
2023-04-10T00:48:44.775Z,51.18
2023-04-10T00:51:12.221Z,52.31
2023-04-10T00:53:38.882Z,51.39
2023-04-10T00:56:06.111Z,49.81
2023-04-10T00:58:32.789Z,50.99
2023-04-10T01:00:59.529Z,51.78
2023-04-10T01:03:26.391Z,51.58
2023-04-10T01:06:27.341Z,51.76
2023-04-10T01:09:06.717Z,52.04
2023-04-10T01:11:51.237Z,51.83
2023-04-10T01:14:23.612Z,51.59
2023-04-10T01:17:08.563Z,51.74
2023-04-10T01:20:01.239Z,52.43
2023-04-10T01:23:09.436Z,51.46
2023-04-10T01:26:02.256Z,51.75
2023-04-10T01:28:47.150Z,51.85
2023-04-10T01:31:20.914Z,52.60
2023-04-10T01:33:51.035Z,53.35
2023-04-10T01:36:26.286Z,53.86
2023-04-10T01:38:54.701Z,53.78
2023-04-10T01:41:22.981Z,53.41
2023-04-10T01:43:52.140Z,52.70
2023-04-10T01:46:24.165Z,53.18
2023-04-10T01:48:52.300Z,52.55
2023-04-10T01:51:18.947Z,52.77
2023-04-10T01:53:47.333Z,52.01
2023-04-10T01:56:15.108Z,53.05
2023-04-10T01:58:42.679Z,52.02
2023-04-10T02:01:19.204Z,51.73
2023-04-10T02:03:53.726Z,52.71
2023-04-10T02:06:37.789Z,51.90
2023-04-10T02:09:23.888Z,51.33
2023-04-10T02:12:07.174Z,52.98
2023-04-10T02:14:38.346Z,54.41
2023-04-10T02:17:05.440Z,52.05
2023-04-10T02:19:33.344Z,51.85
2023-04-10T02:22:00.166Z,51.58
2023-04-10T02:24:27.571Z,50.26
2023-04-10T02:26:54.260Z,50.32
2023-04-10T02:29:20.874Z,51.19
2023-04-10T02:31:47.723Z,52.14
2023-04-10T02:34:14.529Z,51.60
2023-04-10T02:36:41.240Z,52.07
2023-04-10T02:39:10.645Z,51.76
2023-04-10T02:41:37.350Z,51.48
2023-04-10T02:44:04.322Z,52.33
2023-04-10T02:46:31.271Z,51.75
2023-04-10T02:48:57.996Z,51.29
2023-04-10T02:51:24.570Z,52.25
2023-04-10T02:53:53.417Z,52.32
2023-04-10T02:56:20.923Z,51.82
2023-04-10T02:58:47.855Z,51.12
2023-04-10T03:01:14.570Z,51.96
2023-04-10T03:03:41.311Z,53.27
2023-04-10T03:06:09.287Z,53.30
2023-04-10T03:08:35.948Z,53.19
2023-04-10T03:11:02.638Z,53.34
2023-04-10T03:13:29.215Z,52.47
2023-04-10T03:15:55.924Z,53.32
2023-04-10T03:18:22.706Z,53.71
2023-04-10T03:20:49.346Z,53.01
2023-04-10T03:23:15.988Z,52.24
2023-04-10T03:25:43.374Z,52.70
2023-04-10T03:28:10.339Z,52.77
2023-04-10T03:30:37.259Z,52.85
2023-04-10T03:33:04.082Z,54.20
2023-04-10T03:35:31.145Z,53.91
2023-04-10T03:37:57.825Z,53.72
2023-04-10T03:40:24.512Z,54.34
2023-04-10T03:42:51.224Z,56.05
2023-04-10T03:45:17.863Z,56.92
2023-04-10T03:47:44.549Z,58.19
2023-04-10T03:50:11.247Z,59.14
2023-04-10T03:52:37.872Z,59.18
2023-04-10T03:55:04.826Z,61.65
2023-04-10T03:57:31.463Z,60.92
2023-04-10T03:59:58.037Z,61.84
2023-04-10T04:02:24.753Z,61.85
2023-04-10T04:04:51.664Z,63.43
2023-04-10T04:07:18.358Z,63.40
2023-04-10T04:09:45.592Z,62.19
2023-04-10T04:12:12.292Z,62.15
2023-04-10T04:14:38.925Z,62.74
2023-04-10T04:17:05.688Z,62.31
2023-04-10T04:19:32.294Z,62.78
2023-04-10T04:22:00.559Z,63.13
2023-04-10T04:24:27.274Z,62.57
2023-04-10T04:26:53.953Z,62.15
2023-04-10T04:29:20.690Z,62.81
2023-04-10T04:31:47.379Z,63.05
2023-04-10T04:34:14.046Z,62.99
2023-04-10T04:36:40.671Z,62.84
2023-04-10T04:39:07.392Z,62.05
2023-04-10T04:41:34.196Z,62.11
2023-04-10T04:44:02.418Z,61.29
2023-04-10T04:46:29.215Z,62.33
2023-04-10T04:48:56.567Z,61.94
2023-04-10T04:51:23.337Z,60.78
2023-04-10T04:53:50.162Z,59.70
2023-04-10T04:56:16.847Z,60.04
2023-04-10T04:58:43.516Z,59.61
2023-04-10T05:01:10.250Z,58.39
2023-04-10T05:03:37.011Z,58.91
2023-04-10T05:06:03.850Z,58.63
2023-04-10T05:08:30.770Z,58.46
2023-04-10T05:10:57.334Z,57.42
2023-04-10T05:13:23.990Z,59.16
2023-04-10T05:15:50.780Z,59.56
2023-04-10T05:18:19.891Z,60.23
2023-04-10T05:20:47.555Z,59.67
2023-04-10T05:23:14.408Z,58.65
2023-04-10T05:25:41.516Z,58.56
2023-04-10T05:28:08.356Z,58.37
2023-04-10T05:30:34.949Z,58.94
2023-04-10T05:33:02.314Z,59.76
2023-04-10T05:35:28.976Z,58.11
2023-04-10T05:37:55.663Z,56.87
2023-04-10T05:40:22.338Z,56.82
2023-04-10T05:42:48.975Z,56.23
2023-04-10T05:45:15.634Z,57.37
2023-04-10T05:47:42.362Z,58.06
2023-04-10T05:50:09.579Z,58.55
2023-04-10T05:52:36.294Z,58.80
2023-04-10T05:55:03.452Z,58.58
2023-04-10T05:57:30.496Z,60.71
2023-04-10T05:59:57.115Z,60.03
2023-04-10T06:02:24.760Z,61.87
2023-04-10T06:04:51.736Z,61.46
2023-04-10T06:07:18.399Z,61.14
2023-04-10T06:09:44.982Z,62.21
2023-04-10T06:12:11.829Z,62.01
2023-04-10T06:14:38.444Z,63.67
2023-04-10T06:17:05.027Z,61.58
2023-04-10T06:19:31.736Z,62.64
2023-04-10T06:21:58.341Z,62.98
2023-04-10T06:24:24.871Z,62.21
2023-04-10T06:26:51.500Z,61.08
2023-04-10T06:29:18.186Z,61.69
2023-04-10T06:31:44.926Z,58.58
2023-04-10T06:34:11.521Z,57.51
2023-04-10T06:36:38.688Z,56.85
2023-04-10T06:39:06.639Z,56.24
2023-04-10T06:41:33.294Z,58.80
2023-04-10T06:44:02.504Z,57.22
2023-04-10T06:46:30.330Z,56.36
2023-04-10T06:48:57.140Z,56.19
2023-04-10T06:51:23.800Z,55.34
2023-04-10T06:53:50.475Z,56.00
2023-04-10T06:56:17.087Z,55.46
2023-04-10T06:58:43.803Z,55.62
2023-04-10T07:01:10.504Z,56.12
2023-04-10T07:03:37.293Z,54.83
2023-04-10T07:06:04.444Z,54.40
2023-04-10T07:08:31.040Z,56.18
2023-04-10T07:10:58.796Z,56.55
2023-04-10T07:13:25.648Z,55.51
2023-04-10T07:15:52.467Z,54.52
2023-04-10T07:18:19.287Z,53.76
2023-04-10T07:20:45.866Z,53.76
2023-04-10T07:23:12.497Z,53.64
2023-04-10T07:25:40.630Z,53.58
2023-04-10T07:28:07.255Z,54.92
2023-04-10T07:30:33.861Z,52.75
2023-04-10T07:33:00.706Z,54.14
2023-04-10T07:35:27.474Z,55.04
2023-04-10T07:37:54.682Z,56.18
2023-04-10T07:40:21.559Z,54.20
2023-04-10T07:42:48.317Z,53.36
2023-04-10T07:45:15.127Z,52.32
2023-04-10T07:47:41.897Z,52.37
2023-04-10T07:50:09.097Z,54.56
2023-04-10T07:52:36.068Z,56.18
2023-04-10T07:55:05.915Z,54.60
2023-04-10T07:57:32.552Z,54.75
2023-04-10T07:59:59.216Z,53.72
2023-04-10T08:02:26.138Z,52.29
2023-04-10T08:04:53.263Z,53.41
2023-04-10T08:07:22.446Z,51.79
2023-04-10T08:09:49.097Z,51.54
2023-04-10T08:12:16.225Z,52.77
2023-04-10T08:14:43.731Z,51.58
2023-04-10T08:17:14.808Z,54.07
2023-04-10T08:19:42.410Z,54.28
2023-04-10T08:22:09.331Z,55.06
2023-04-10T08:24:35.993Z,53.09
2023-04-10T08:27:02.692Z,52.76
2023-04-10T08:29:29.324Z,53.53
2023-04-10T08:31:56.567Z,50.88
2023-04-10T08:34:24.438Z,51.87
2023-04-10T08:36:51.185Z,52.35
2023-04-10T08:39:18.531Z,50.82
2023-04-10T08:41:45.294Z,51.40
2023-04-10T08:44:12.304Z,53.05
2023-04-10T08:46:43.705Z,52.70
2023-04-10T08:49:17.221Z,51.35
2023-04-10T08:51:49.338Z,51.07
2023-04-10T08:54:26.054Z,49.47
2023-04-10T08:56:54.452Z,48.56
2023-04-10T08:59:21.605Z,48.87
2023-04-10T09:01:48.920Z,49.13
2023-04-10T09:04:17.997Z,49.76
2023-04-10T09:06:44.903Z,49.70
2023-04-10T09:09:11.586Z,50.05
2023-04-10T09:11:54.161Z,53.01
2023-04-10T09:14:26.676Z,52.39
2023-04-10T09:16:54.852Z,51.90
2023-04-10T09:19:32.428Z,50.80
2023-04-10T09:21:59.473Z,51.90
2023-04-10T09:24:26.732Z,50.52
2023-04-10T09:26:53.561Z,50.99
2023-04-10T09:29:20.275Z,52.22
2023-04-10T09:31:46.903Z,52.68
2023-04-10T09:34:18.793Z,53.85
2023-04-10T09:36:57.272Z,53.15
2023-04-10T09:39:43.819Z,51.64
2023-04-10T09:42:14.944Z,52.59
2023-04-10T09:44:42.184Z,51.36
2023-04-10T09:47:14.637Z,52.12
2023-04-10T09:49:49.631Z,52.30
2023-04-10T09:52:21.996Z,50.57
2023-04-10T09:54:48.849Z,51.65
2023-04-10T09:57:19.232Z,52.69
2023-04-10T09:59:54.259Z,51.15
2023-04-10T10:02:23.267Z,51.07
2023-04-10T10:04:51.105Z,49.99
2023-04-10T10:07:20.453Z,51.91
2023-04-10T10:09:49.075Z,49.01
2023-04-10T10:12:34.248Z,51.65
2023-04-10T10:15:11.603Z,50.05
2023-04-10T10:17:54.231Z,48.86
2023-04-10T10:20:23.978Z,49.30
2023-04-10T10:22:51.894Z,46.97
2023-04-10T10:25:20.504Z,49.39
2023-04-10T10:27:50.289Z,47.72
2023-04-10T10:30:29.474Z,46.96
2023-04-10T10:32:58.878Z,45.91
2023-04-10T10:35:29.270Z,46.66
2023-04-10T10:37:58.576Z,48.69
2023-04-10T10:40:31.438Z,47.73
2023-04-10T10:43:13.926Z,47.55
2023-04-10T10:46:02.387Z,48.58
2023-04-10T10:48:29.304Z,46.87
2023-04-10T10:51:01.002Z,45.32
2023-04-10T10:53:43.208Z,44.69
2023-04-10T10:56:18.659Z,45.39
2023-04-10T10:58:54.588Z,44.47
2023-04-10T11:01:22.274Z,46.03
2023-04-10T11:03:49.628Z,47.92
2023-04-10T11:06:19.551Z,46.85
2023-04-10T11:08:48.615Z,45.56
2023-04-10T11:11:20.095Z,46.55
2023-04-10T11:13:58.396Z,47.63
2023-04-10T11:16:44.280Z,46.97
2023-04-10T11:19:15.933Z,45.90
2023-04-10T11:22:04.772Z,43.84
2023-04-10T11:24:57.438Z,43.72
2023-04-10T11:27:45.964Z,43.88
2023-04-10T11:30:36.232Z,44.58
2023-04-10T11:33:05.524Z,43.75
2023-04-10T11:35:33.573Z,42.91
2023-04-10T11:38:13.829Z,43.21
2023-04-10T11:40:57.925Z,46.08
2023-04-10T11:43:24.732Z,47.87
2023-04-10T11:46:00.053Z,47.05
2023-04-10T11:48:29.307Z,47.13
2023-04-10T11:50:56.109Z,46.64
2023-04-10T11:53:22.831Z,45.61
2023-04-10T11:55:50.103Z,45.74
2023-04-10T11:58:27.532Z,44.80
2023-04-10T12:01:04.694Z,44.43
2023-04-10T12:03:40.188Z,43.75
2023-04-10T12:06:10.398Z,45.08
2023-04-10T12:08:42.211Z,45.24
2023-04-10T12:11:10.812Z,46.45
2023-04-10T12:13:38.737Z,44.67
2023-04-10T12:16:08.052Z,46.64
2023-04-10T12:18:35.034Z,45.38
2023-04-10T12:21:02.567Z,45.30
2023-04-10T12:23:30.271Z,45.01
2023-04-10T12:26:09.518Z,45.97
2023-04-10T12:28:37.879Z,46.84
2023-04-10T12:31:05.268Z,49.60
2023-04-10T12:33:32.267Z,57.69
2023-04-10T12:35:59.340Z,62.81
2023-04-10T12:38:36.150Z,63.16
2023-04-10T12:41:03.880Z,62.76
2023-04-10T12:43:36.202Z,64.83
2023-04-10T12:46:03.569Z,62.79
2023-04-10T12:48:30.693Z,62.50
2023-04-10T12:50:57.889Z,62.70
2023-04-10T12:53:25.543Z,59.87
2023-04-10T12:56:06.941Z,61.98
2023-04-10T12:58:33.756Z,62.95
2023-04-10T13:01:06.046Z,61.29
2023-04-10T13:03:37.956Z,60.70
2023-04-10T13:06:08.312Z,59.43
2023-04-10T13:08:35.546Z,58.79
2023-04-10T13:11:03.649Z,57.46
2023-04-10T13:13:31.450Z,56.71
2023-04-10T13:15:58.729Z,56.37
2023-04-10T13:18:25.619Z,55.90
2023-04-10T13:20:52.441Z,56.30
2023-04-10T13:23:19.030Z,56.65
2023-04-10T13:25:45.765Z,57.11
2023-04-10T13:28:12.480Z,55.90
2023-04-10T13:30:41.583Z,56.99
2023-04-10T13:33:09.727Z,55.29
2023-04-10T13:35:36.510Z,53.74
2023-04-10T13:38:03.575Z,52.65
2023-04-10T13:40:30.353Z,57.26
2023-04-10T13:42:57.083Z,54.88
2023-04-10T13:45:23.711Z,54.30
2023-04-10T13:47:50.696Z,53.82
2023-04-10T13:50:17.531Z,55.88
2023-04-10T13:52:44.165Z,54.08
2023-04-10T13:55:10.958Z,54.15
2023-04-10T13:57:38.149Z,54.62
2023-04-10T14:00:05.717Z,52.91
2023-04-10T14:02:33.938Z,50.96
2023-04-10T14:05:00.828Z,54.13
2023-04-10T14:07:27.511Z,52.25
2023-04-10T14:09:55.345Z,51.47
2023-04-10T14:12:23.385Z,51.35
2023-04-10T14:14:50.192Z,51.87
2023-04-10T14:17:16.773Z,51.47
2023-04-10T14:19:43.483Z,51.15
2023-04-10T14:22:10.091Z,50.05
2023-04-10T14:24:36.679Z,51.11
2023-04-10T14:27:03.461Z,50.93
2023-04-10T14:31:59.739Z,51.19
2023-04-10T14:34:26.438Z,51.64
2023-04-10T14:36:56.247Z,52.20
2023-04-10T14:39:25.943Z,51.33
2023-04-10T14:41:52.579Z,52.49
2023-04-10T14:44:19.260Z,52.15
2023-04-10T14:46:46.263Z,52.56
2023-04-10T14:49:15.012Z,52.33
2023-04-10T14:51:46.043Z,51.75
2023-04-10T14:54:12.698Z,51.17
2023-04-10T14:56:39.342Z,50.35
2023-04-10T14:59:07.178Z,49.37
2023-04-10T15:01:35.638Z,49.87
2023-04-10T15:04:02.670Z,52.26
2023-04-10T15:06:32.329Z,51.62
2023-04-10T15:08:58.949Z,50.71
2023-04-10T15:11:25.829Z,51.48
2023-04-10T15:13:52.898Z,50.99
2023-04-10T15:16:19.736Z,51.65
2023-04-10T15:18:49.587Z,51.25
2023-04-10T15:21:17.058Z,50.72
2023-04-10T15:23:43.749Z,51.69
2023-04-10T15:26:14.564Z,50.02
2023-04-10T15:28:43.152Z,48.92
2023-04-10T15:31:11.115Z,49.47
2023-04-10T15:33:39.349Z,49.56
2023-04-10T15:36:07.972Z,49.12
2023-04-10T15:38:35.981Z,48.43
2023-04-10T15:41:12.903Z,50.31
2023-04-10T15:43:39.599Z,50.66
2023-04-10T15:46:06.431Z,50.74
2023-04-10T15:48:33.248Z,51.75
2023-04-10T15:51:04.708Z,49.36
2023-04-10T15:53:31.346Z,48.95
2023-04-10T15:55:58.018Z,49.00
2023-04-10T15:58:24.579Z,47.82
2023-04-10T16:00:51.202Z,48.56
2023-04-10T16:03:18.051Z,47.39
2023-04-10T16:05:44.663Z,46.94
2023-04-10T16:08:11.328Z,48.13
2023-04-10T16:10:37.971Z,47.95
2023-04-10T16:13:06.591Z,47.49
2023-04-10T16:15:37.746Z,49.13
2023-04-10T16:18:05.919Z,49.49
2023-04-10T16:20:32.703Z,49.62
2023-04-10T16:23:00.247Z,47.63
2023-04-10T16:25:27.556Z,47.44
2023-04-10T16:27:55.655Z,46.29
2023-04-10T16:30:24.211Z,47.19
2023-04-10T16:32:51.301Z,47.23
2023-04-10T16:35:22.513Z,47.04
2023-04-10T16:37:49.545Z,46.82
2023-04-10T16:40:16.223Z,46.72
2023-04-10T16:42:43.008Z,46.63
2023-04-10T16:45:10.688Z,47.50
2023-04-10T16:47:38.017Z,49.37
2023-04-10T16:50:05.710Z,58.87
2023-04-10T16:52:32.550Z,60.84
2023-04-10T16:54:59.246Z,67.85
2023-04-10T16:57:26.248Z,72.59
2023-04-10T16:59:57.992Z,71.18
2023-04-10T17:02:25.669Z,69.63
2023-04-10T17:04:55.475Z,69.66
2023-04-10T17:07:23.223Z,71.66
2023-04-10T17:09:49.869Z,69.34
2023-04-10T17:12:16.564Z,68.97
2023-04-10T17:14:43.302Z,68.13
2023-04-10T17:17:09.953Z,65.84
2023-04-10T17:19:36.590Z,65.27
2023-04-10T17:22:03.853Z,63.00
2023-04-10T17:24:31.573Z,62.09
2023-04-10T17:26:58.444Z,62.28
2023-04-10T17:29:25.903Z,62.82
2023-04-10T17:31:52.626Z,63.37
2023-04-10T17:34:19.271Z,66.75
2023-04-10T17:36:46.083Z,62.49
2023-04-10T17:39:12.681Z,62.89
2023-04-10T17:41:39.284Z,64.36
2023-04-10T17:44:05.863Z,63.27
2023-04-10T17:46:32.563Z,63.57
2023-04-10T17:49:02.659Z,63.75
2023-04-10T17:51:29.622Z,64.84
2023-04-10T17:53:56.315Z,66.05
2023-04-10T17:56:23.044Z,67.67
2023-04-10T17:58:49.727Z,66.67
2023-04-10T18:01:29.880Z,67.14
2023-04-10T18:04:02.770Z,67.14
2023-04-10T18:06:29.794Z,66.81
2023-04-10T18:08:57.374Z,65.98
2023-04-10T18:11:24.310Z,65.22
2023-04-10T18:13:51.076Z,66.20
2023-04-10T18:16:17.952Z,65.47
2023-04-10T18:18:44.739Z,66.28
2023-04-10T18:21:13.375Z,65.75
2023-04-10T18:23:40.586Z,67.81
2023-04-10T18:26:07.928Z,67.52
2023-04-10T18:28:36.607Z,67.21
2023-04-10T18:31:03.589Z,67.33
2023-04-10T18:33:30.681Z,66.08
2023-04-10T18:35:58.758Z,66.72
2023-04-10T18:38:26.086Z,68.59
2023-04-10T18:40:57.194Z,66.76
2023-04-10T18:43:27.678Z,66.52
2023-04-10T18:45:55.155Z,67.37
2023-04-10T18:48:22.064Z,66.40
2023-04-10T18:50:53.297Z,66.03
2023-04-10T18:53:20.996Z,65.87
2023-04-10T18:55:52.052Z,64.75
2023-04-10T18:58:20.289Z,64.23
2023-04-10T19:00:47.590Z,64.33
2023-04-10T19:03:14.586Z,64.00
2023-04-10T19:05:42.882Z,64.80
2023-04-10T19:08:14.124Z,64.11
2023-04-10T19:10:44.204Z,64.79
2023-04-10T19:13:12.164Z,65.55
2023-04-10T19:15:40.773Z,66.20
2023-04-10T19:18:07.640Z,65.60
2023-04-10T19:20:50.646Z,64.60
2023-04-10T19:23:19.143Z,64.98
2023-04-10T19:25:45.885Z,64.99
2023-04-10T19:28:12.745Z,65.82
2023-04-10T19:30:39.338Z,65.66
2023-04-10T19:33:06.050Z,65.13
2023-04-10T19:35:32.719Z,64.82
2023-04-10T19:37:59.395Z,63.67
2023-04-10T19:40:26.308Z,63.00
2023-04-10T19:42:53.090Z,64.65
2023-04-10T19:45:20.364Z,69.87
2023-04-10T19:47:50.704Z,71.33
2023-04-10T19:50:17.445Z,70.18
2023-04-10T19:52:44.045Z,67.78
2023-04-10T19:55:10.938Z,66.50
2023-04-10T19:57:37.570Z,66.90
2023-04-10T20:00:04.443Z,70.64
2023-04-10T20:02:31.152Z,73.52
2023-04-10T20:04:58.219Z,70.14
2023-04-10T20:07:25.003Z,68.73
2023-04-10T20:09:51.696Z,67.95
2023-04-10T20:12:18.288Z,68.69
2023-04-10T20:14:45.121Z,68.58
2023-04-10T20:17:12.333Z,68.48
2023-04-10T20:19:39.031Z,68.91
2023-04-10T20:22:07.249Z,68.01
2023-04-10T20:24:34.252Z,67.88
2023-04-10T20:27:01.537Z,68.79
2023-04-10T20:29:28.144Z,70.81
2023-04-10T20:31:54.808Z,72.17
2023-04-10T20:34:21.576Z,69.84
2023-04-10T20:36:48.141Z,69.70
2023-04-10T20:39:14.927Z,70.68
2023-04-10T20:41:41.520Z,71.07
2023-04-10T20:44:08.223Z,70.47
2023-04-10T20:46:34.818Z,69.23
2023-04-10T20:49:02.323Z,69.31
2023-04-10T20:51:28.928Z,69.59
2023-04-10T20:53:55.673Z,69.12
2023-04-10T20:56:32.886Z,68.50
2023-04-10T20:59:07.163Z,67.34
2023-04-10T21:01:34.643Z,67.27
2023-04-10T21:04:01.921Z,67.11
2023-04-10T21:06:28.963Z,67.27
2023-04-10T21:08:55.958Z,66.97
2023-04-10T21:11:22.788Z,66.99
2023-04-10T21:13:49.474Z,66.62
2023-04-10T21:16:16.290Z,66.54
2023-04-10T21:18:42.971Z,65.93
2023-04-10T21:21:09.674Z,66.37
2023-04-10T21:23:36.493Z,65.78
2023-04-10T21:26:03.538Z,65.60
2023-04-10T21:28:30.190Z,65.48
2023-04-10T21:30:56.786Z,63.64
2023-04-10T21:33:23.407Z,62.40
2023-04-10T21:35:50.071Z,62.30
2023-04-10T21:38:16.695Z,61.18
2023-04-10T21:40:50.476Z,60.09
2023-04-10T21:43:17.061Z,60.67
2023-04-10T21:45:43.746Z,61.34
2023-04-10T21:48:10.619Z,61.40
2023-04-10T21:50:37.348Z,62.95
2023-04-10T21:53:04.057Z,63.18
2023-04-10T21:55:30.676Z,63.09
2023-04-10T21:57:57.517Z,63.30
2023-04-10T22:00:24.179Z,61.61
2023-04-10T22:02:51.775Z,62.35
2023-04-10T22:05:18.525Z,62.12
2023-04-10T22:07:45.289Z,61.81
2023-04-10T22:10:12.059Z,61.77
2023-04-10T22:12:38.677Z,61.44
2023-04-10T22:15:07.831Z,59.69
2023-04-10T22:17:34.732Z,59.61
2023-04-10T22:20:02.326Z,60.82
2023-04-10T22:22:28.980Z,61.88
2023-04-10T22:24:55.615Z,63.93
2023-04-10T22:27:23.814Z,63.38
2023-04-10T22:30:02.081Z,61.61
2023-04-10T22:32:29.751Z,62.62
2023-04-10T22:34:58.105Z,64.06
2023-04-10T22:37:24.689Z,63.89
2023-04-10T22:39:51.340Z,63.14
2023-04-10T22:42:17.962Z,63.83
2023-04-10T22:44:45.463Z,64.16
2023-04-10T22:47:12.119Z,65.05
2023-04-10T22:49:38.712Z,64.64
2023-04-10T22:52:05.422Z,64.19
2023-04-10T22:54:32.013Z,62.63
2023-04-10T22:56:58.598Z,63.44
2023-04-10T22:59:25.351Z,63.02
2023-04-10T23:01:52.033Z,63.52
2023-04-10T23:04:18.846Z,62.78
2023-04-10T23:06:45.553Z,63.16
2023-04-10T23:09:12.203Z,63.84
2023-04-10T23:11:38.994Z,62.54
2023-04-10T23:14:05.602Z,61.33
2023-04-10T23:16:32.319Z,61.33
2023-04-10T23:18:58.965Z,61.92
2023-04-10T23:21:25.673Z,62.45
2023-04-10T23:23:52.282Z,61.69
2023-04-10T23:26:18.861Z,61.26
2023-04-10T23:28:46.104Z,62.17
2023-04-10T23:31:12.774Z,62.59
2023-04-10T23:33:39.422Z,61.66
2023-04-10T23:36:06.517Z,60.70
2023-04-10T23:38:33.192Z,61.31
2023-04-10T23:40:59.731Z,61.18
2023-04-10T23:43:26.358Z,61.93
2023-04-10T23:45:52.964Z,61.36
2023-04-10T23:48:19.638Z,61.52
2023-04-10T23:50:46.225Z,62.11
2023-04-10T23:53:14.438Z,62.38
2023-04-10T23:55:42.207Z,61.43
2023-04-10T23:58:09.041Z,61.50
